createdAt,value
2018-03-19T00:00:59.788Z,-1.20
2018-03-19T00:03:26.828Z,-1.40
2018-03-19T00:05:53.900Z,-1.10
2018-03-19T00:08:20.922Z,-1.30
2018-03-19T00:10:47.944Z,-1.40
2018-03-19T00:13:15.010Z,-1.40
2018-03-19T00:18:09.957Z,-1.50
2018-03-19T00:20:37.128Z,-1.40
2018-03-19T00:23:04.075Z,-1.60
2018-03-19T00:25:31.103Z,-1.50
2018-03-19T00:27:58.176Z,-1.50
2018-03-19T00:30:25.230Z,-1.50
2018-03-19T00:32:52.223Z,-1.50
2018-03-19T00:35:19.316Z,-1.50
2018-03-19T00:37:46.340Z,-1.50
2018-03-19T00:40:13.822Z,-1.50
2018-03-19T00:42:44.266Z,-1.50
2018-03-19T00:45:11.280Z,-1.50
2018-03-19T00:50:16.846Z,-1.70
2018-03-19T00:52:43.880Z,-1.60
2018-03-19T00:55:10.914Z,-1.60
2018-03-19T00:57:38.928Z,-1.50
2018-03-19T01:00:05.941Z,-1.50
2018-03-19T01:02:32.966Z,-1.50
2018-03-19T01:05:00.040Z,-1.60
2018-03-19T01:07:27.163Z,-1.60
2018-03-19T01:09:54.191Z,-1.50
2018-03-19T01:12:21.275Z,-1.50
2018-03-19T01:14:48.301Z,-1.70
2018-03-19T01:17:15.320Z,-1.60
2018-03-19T01:19:42.409Z,-1.60
2018-03-19T01:22:09.424Z,-1.60
2018-03-19T01:24:36.474Z,-1.70
2018-03-19T01:27:03.557Z,-1.80
2018-03-19T01:29:30.577Z,-1.80
2018-03-19T01:31:57.665Z,-1.80
2018-03-19T01:34:25.327Z,-1.80
2018-03-19T01:36:52.162Z,-1.80
2018-03-19T01:39:19.186Z,-1.70
2018-03-19T01:41:46.253Z,-1.80
2018-03-19T01:44:13.269Z,-1.90
2018-03-19T01:46:40.287Z,-1.80
2018-03-19T01:49:07.370Z,-1.80
2018-03-19T01:51:34.400Z,-1.90
2018-03-19T01:54:01.426Z,-1.80
2018-03-19T01:56:28.497Z,-1.70
2018-03-19T01:58:55.519Z,-1.80
2018-03-19T02:01:22.540Z,-1.70
2018-03-19T02:03:49.592Z,-1.80
2018-03-19T02:11:10.914Z,-1.70
2018-03-19T02:16:16.579Z,-0.60
2018-03-19T02:18:43.502Z,-1.80
2018-03-19T02:21:10.526Z,-1.80
2018-03-19T02:23:37.598Z,-1.80
2018-03-19T02:26:04.622Z,-1.80
2018-03-19T02:28:31.649Z,-1.80
2018-03-19T02:30:58.719Z,-1.80
2018-03-19T02:33:25.744Z,-1.80
2018-03-19T02:35:52.757Z,-1.90
2018-03-19T02:38:20.775Z,-1.80
2018-03-19T02:40:47.791Z,-1.90
2018-03-19T02:43:14.823Z,-1.80
2018-03-19T02:45:41.890Z,-1.80
2018-03-19T02:48:08.929Z,-1.90
2018-03-19T02:50:35.966Z,-1.90
2018-03-19T02:53:03.029Z,-1.90
2018-03-19T02:55:30.062Z,-1.90
2018-03-19T02:57:57.070Z,-2.00
2018-03-19T03:00:30.109Z,-1.80
2018-03-19T03:02:57.124Z,-1.80
2018-03-19T03:05:24.130Z,-1.80
2018-03-19T03:07:51.202Z,-1.80
2018-03-19T03:10:18.220Z,-1.80
2018-03-19T03:12:45.243Z,-1.80
2018-03-19T03:15:12.312Z,-1.80
2018-03-19T03:17:39.343Z,-1.80
2018-03-19T03:20:06.360Z,-1.90
2018-03-19T03:22:33.455Z,-1.40
2018-03-19T03:25:00.476Z,-1.80
2018-03-19T03:27:27.496Z,-1.70
2018-03-19T03:29:54.616Z,-1.80
2018-03-19T03:32:21.704Z,-1.70
2018-03-19T03:34:48.723Z,-1.70
2018-03-19T03:37:15.793Z,-1.70
2018-03-19T03:42:23.350Z,-1.90
2018-03-19T03:44:50.370Z,-1.90
2018-03-19T03:47:17.383Z,-1.70
2018-03-19T03:49:45.401Z,-1.80
2018-03-19T03:52:12.419Z,-1.70
2018-03-19T03:54:39.435Z,-1.80
2018-03-19T03:57:06.507Z,-1.80
2018-03-19T03:59:33.522Z,-1.70
2018-03-19T04:04:28.699Z,-1.80
2018-03-19T04:06:55.719Z,-1.70
2018-03-19T04:09:23.562Z,-1.70
2018-03-19T04:11:50.617Z,-1.70
2018-03-19T04:14:17.642Z,-1.80
2018-03-19T04:19:11.817Z,-1.90
2018-03-19T04:21:38.828Z,-2.00
2018-03-19T04:24:05.849Z,-2.00
2018-03-19T04:26:32.917Z,-1.90
2018-03-19T04:29:00.908Z,-2.20
2018-03-19T04:31:27.920Z,-2.00
2018-03-19T04:33:54.982Z,-2.10
2018-03-19T04:36:22.002Z,-2.10
2018-03-19T04:38:49.020Z,-2.10
2018-03-19T04:41:16.088Z,-2.10
2018-03-19T04:43:43.103Z,-2.10
2018-03-19T04:46:10.126Z,-2.10
2018-03-19T04:48:37.202Z,-2.00
2018-03-19T04:51:04.213Z,-2.10
2018-03-19T04:53:32.389Z,-2.00
2018-03-19T04:55:59.473Z,-2.00
2018-03-19T05:00:53.595Z,-2.10
2018-03-19T05:06:06.688Z,-2.20
2018-03-19T05:08:33.455Z,-2.20
2018-03-19T05:11:00.805Z,-2.10
2018-03-19T05:13:27.779Z,-2.10
2018-03-19T05:15:54.827Z,-2.00
2018-03-19T05:18:21.861Z,-2.00
2018-03-19T05:20:48.876Z,-2.10
2018-03-19T05:23:15.948Z,-2.00
2018-03-19T05:25:42.968Z,-2.00
2018-03-19T05:28:09.988Z,-2.10
2018-03-19T05:30:37.364Z,-2.10
2018-03-19T05:33:04.380Z,-1.90
2018-03-19T05:35:31.766Z,-1.90
2018-03-19T05:37:58.859Z,-2.10
2018-03-19T05:40:26.248Z,-2.10
2018-03-19T05:42:54.109Z,-2.10
2018-03-19T05:45:21.174Z,-2.10
2018-03-19T05:50:16.675Z,-2.00
2018-03-19T05:52:43.731Z,-2.00
2018-03-19T05:55:10.748Z,-2.00
2018-03-19T05:57:37.765Z,-2.10
2018-03-19T06:00:05.660Z,-2.20
2018-03-19T06:05:11.219Z,-2.30
2018-03-19T06:07:38.235Z,-2.30
2018-03-19T06:10:05.264Z,-2.30
2018-03-19T06:14:59.446Z,-2.30
2018-03-19T06:17:26.471Z,-2.30
2018-03-19T06:19:53.518Z,-2.30
2018-03-19T06:22:20.536Z,-2.20
2018-03-19T06:24:47.562Z,-2.20
2018-03-19T06:27:14.625Z,-2.30
2018-03-19T06:29:41.648Z,-2.20
2018-03-19T06:32:08.673Z,-2.30
2018-03-19T06:34:35.729Z,-2.30
2018-03-19T06:37:02.736Z,-2.40
2018-03-19T06:39:29.753Z,-2.40
2018-03-19T06:41:56.805Z,-2.30
2018-03-19T06:44:23.826Z,-2.30
2018-03-19T06:46:50.853Z,-2.40
2018-03-19T06:49:18.404Z,-2.40
2018-03-19T06:54:12.544Z,-2.70
2018-03-19T06:56:39.620Z,-2.60
2018-03-19T06:59:06.646Z,-2.60
2018-03-19T07:01:33.657Z,-2.60
2018-03-19T07:04:00.728Z,-2.60
2018-03-19T07:06:28.009Z,-2.60
2018-03-19T07:08:55.011Z,-2.70
2018-03-19T07:11:22.069Z,-2.70
2018-03-19T07:13:49.084Z,-2.50
2018-03-19T07:16:16.107Z,-2.40
2018-03-19T07:18:43.999Z,-2.30
2018-03-19T07:21:11.825Z,-2.20
2018-03-19T07:23:38.843Z,-2.20
2018-03-19T07:28:46.398Z,-2.30
2018-03-19T07:31:13.478Z,-2.20
2018-03-19T07:33:40.500Z,-2.30
2018-03-19T07:36:07.515Z,-2.10
2018-03-19T07:38:34.603Z,-2.10
2018-03-19T07:41:01.629Z,-2.10
2018-03-19T07:43:28.644Z,-2.00
2018-03-19T07:45:55.707Z,-2.00
2018-03-19T07:48:22.773Z,-2.10
2018-03-19T07:50:49.771Z,-2.20
2018-03-19T07:53:16.841Z,-2.00
2018-03-19T07:55:43.853Z,-2.00
2018-03-19T07:58:10.875Z,-2.00
2018-03-19T08:00:37.943Z,-2.10
2018-03-19T08:03:04.966Z,-2.00
2018-03-19T08:05:31.988Z,-1.90
2018-03-19T08:10:26.186Z,-2.00
2018-03-19T08:12:53.210Z,-1.70
2018-03-19T08:15:20.303Z,-1.70
2018-03-19T08:17:47.319Z,-1.70
2018-03-19T08:20:14.331Z,-1.40
2018-03-19T08:22:41.417Z,-1.40
2018-03-19T08:27:35.527Z,-1.70
2018-03-19T08:30:02.601Z,-1.60
2018-03-19T08:32:29.651Z,-1.40
2018-03-19T08:34:56.666Z,-1.10
2018-03-19T08:37:23.741Z,-1.50
2018-03-19T08:39:50.770Z,-1.40
2018-03-19T08:42:18.708Z,-1.50
2018-03-19T08:44:45.784Z,-1.60
2018-03-19T08:47:12.803Z,-1.70
2018-03-19T08:52:18.366Z,-1.70
2018-03-19T08:54:46.396Z,-1.70
2018-03-19T08:57:13.407Z,-1.80
2018-03-19T08:59:40.492Z,-1.90
2018-03-19T09:02:07.506Z,-1.80
2018-03-19T09:04:34.522Z,-1.70
2018-03-19T09:07:02.370Z,-1.90
2018-03-19T09:11:56.496Z,-1.80
2018-03-19T09:14:23.558Z,-1.90
2018-03-19T09:16:50.599Z,-1.80
2018-03-19T09:19:17.592Z,-1.70
2018-03-19T09:21:44.663Z,-1.80
2018-03-19T09:24:11.676Z,-1.70
2018-03-19T09:26:38.703Z,-1.80
2018-03-19T09:29:05.783Z,-1.80
2018-03-19T09:31:32.811Z,-1.60
2018-03-19T09:33:59.841Z,-1.60
2018-03-19T09:36:27.323Z,-1.50
2018-03-19T09:41:21.379Z,-1.40
2018-03-19T09:43:48.460Z,-1.20
2018-03-19T09:46:15.477Z,-1.40
2018-03-19T09:48:42.497Z,-1.60
2018-03-19T09:51:09.576Z,-1.70
2018-03-19T09:53:36.588Z,-1.50
2018-03-19T09:56:03.613Z,-1.40
2018-03-19T09:58:30.684Z,-1.50
2018-03-19T10:00:57.709Z,-1.40
2018-03-19T10:03:24.750Z,-1.50
2018-03-19T10:05:51.801Z,-1.40
2018-03-19T10:08:19.671Z,-1.40
2018-03-19T10:10:46.688Z,-1.50
2018-03-19T10:15:52.252Z,-1.30
2018-03-19T10:18:19.799Z,-1.20
2018-03-19T10:20:46.796Z,-1.10
2018-03-19T10:23:13.873Z,-1.20
2018-03-19T10:28:07.997Z,-1.20
2018-03-19T10:30:35.018Z,-1.10
2018-03-19T10:33:02.090Z,-0.90
2018-03-19T10:37:57.272Z,-0.50
2018-03-19T10:40:24.354Z,-0.30
2018-03-19T10:42:51.366Z,-0.70
2018-03-19T10:45:18.396Z,-0.80
2018-03-19T10:47:45.469Z,-0.70
2018-03-19T10:50:12.574Z,-0.60
2018-03-19T10:52:39.592Z,-0.60
2018-03-19T11:00:02.686Z,-0.50
2018-03-19T11:02:29.831Z,-0.30
2018-03-19T11:04:56.859Z,-0.30
2018-03-19T11:09:51.035Z,-0.50
2018-03-19T11:12:18.094Z,-0.10
2018-03-19T11:14:45.080Z,-0.30
2018-03-19T11:17:12.165Z,-0.40
2018-03-19T11:19:39.182Z,-0.20
2018-03-19T11:22:06.228Z,-0.40
2018-03-19T11:24:36.121Z,-0.30
2018-03-19T11:27:03.145Z,-0.60
2018-03-19T11:29:30.173Z,-0.70
2018-03-19T11:31:57.247Z,-0.60
2018-03-19T11:34:24.267Z,-0.50
2018-03-19T11:39:32.790Z,-0.50
2018-03-19T11:41:59.804Z,0.10
2018-03-19T11:44:26.812Z,0.10
2018-03-19T11:46:53.901Z,0.00
2018-03-19T11:49:20.924Z,-0.10
2018-03-19T11:51:47.938Z,0.00
2018-03-19T11:54:15.016Z,-0.50
2018-03-19T11:56:42.075Z,-0.30
2018-03-19T11:59:09.101Z,-0.30
2018-03-19T12:01:36.193Z,-0.20
2018-03-19T12:04:03.194Z,0.00
2018-03-19T12:08:57.458Z,0.00
2018-03-19T12:11:24.478Z,0.20
2018-03-19T12:13:51.496Z,-0.10
2018-03-19T12:16:18.558Z,0.00
2018-03-19T12:18:45.580Z,0.10
2018-03-19T12:21:12.599Z,0.10
2018-03-19T12:23:39.668Z,-0.10
2018-03-19T12:26:07.453Z,-0.10
2018-03-19T12:28:34.479Z,-0.10
2018-03-19T12:31:01.546Z,0.10
2018-03-19T12:33:28.574Z,0.00
2018-03-19T12:35:55.608Z,-0.10
2018-03-19T12:38:22.688Z,0.00
2018-03-19T12:40:49.720Z,0.00
2018-03-19T12:43:16.739Z,-0.10
2018-03-19T12:45:43.812Z,-0.10
2018-03-19T12:48:10.857Z,-0.20
2018-03-19T12:50:37.874Z,0.00
2018-03-19T12:53:04.941Z,0.10
2018-03-19T12:55:31.956Z,0.40
2018-03-19T12:57:58.983Z,0.40
2018-03-19T13:00:26.052Z,0.80
2018-03-19T13:07:58.710Z,0.50
2018-03-19T13:10:26.678Z,0.70
2018-03-19T13:12:53.709Z,0.80
2018-03-19T13:15:20.784Z,1.10
2018-03-19T13:17:47.869Z,0.80
2018-03-19T13:20:14.823Z,0.80
2018-03-19T13:22:41.897Z,1.00
2018-03-19T13:25:08.914Z,1.10
2018-03-19T13:30:03.918Z,1.10
2018-03-19T13:32:30.935Z,1.10
2018-03-19T13:34:57.999Z,1.40
2018-03-19T13:37:25.075Z,1.70
2018-03-19T13:39:53.439Z,1.40
2018-03-19T13:42:20.462Z,1.20
2018-03-19T13:44:47.533Z,1.00
2018-03-19T13:47:14.551Z,1.20
2018-03-19T13:49:41.579Z,1.40
2018-03-19T13:52:08.651Z,0.90
2018-03-19T13:54:35.681Z,1.00
2018-03-19T13:57:02.693Z,0.80
2018-03-19T13:59:30.210Z,0.80
2018-03-19T14:01:57.130Z,0.70
2018-03-19T14:04:24.200Z,0.70
2018-03-19T14:06:51.221Z,1.10
2018-03-19T14:09:18.236Z,0.90
2018-03-19T14:11:45.243Z,1.00
2018-03-19T14:14:12.310Z,1.20
2018-03-19T14:16:39.348Z,0.90
2018-03-19T14:21:33.514Z,0.70
2018-03-19T14:24:00.574Z,0.60
2018-03-19T14:26:27.532Z,0.50
2018-03-19T14:28:56.478Z,0.70
2018-03-19T14:34:04.008Z,1.00
2018-03-19T14:36:31.026Z,0.80
2018-03-19T14:38:58.098Z,0.50
2018-03-19T14:41:25.173Z,0.40
2018-03-19T14:43:53.022Z,0.50
2018-03-19T14:48:47.209Z,0.30
2018-03-19T14:51:14.224Z,0.20
2018-03-19T14:53:41.242Z,-0.20
2018-03-19T14:56:08.318Z,-0.20
2018-03-19T14:58:35.332Z,-0.20
2018-03-19T15:01:02.353Z,-0.10
2018-03-19T15:03:31.444Z,-0.20
2018-03-19T15:05:58.462Z,-0.30
2018-03-19T15:08:25.475Z,-0.40
2018-03-19T15:10:52.590Z,-0.50
2018-03-19T15:13:19.610Z,-0.40
2018-03-19T15:15:46.631Z,-0.60
2018-03-19T15:18:13.720Z,-0.50
2018-03-19T15:23:07.861Z,-0.40
2018-03-19T15:25:34.937Z,-0.40
2018-03-19T15:28:01.978Z,-0.60
2018-03-19T15:30:29.008Z,-0.50
2018-03-19T15:32:56.070Z,-0.60
2018-03-19T15:35:23.089Z,-0.50
2018-03-19T15:37:50.125Z,-0.50
2018-03-19T15:40:17.200Z,-0.60
2018-03-19T15:42:47.696Z,-0.80
2018-03-19T15:45:14.703Z,-0.80
2018-03-19T15:47:41.777Z,-0.70
2018-03-19T15:50:08.799Z,-0.80
2018-03-19T15:55:02.995Z,-0.80
2018-03-19T16:00:09.508Z,-1.00
2018-03-19T16:02:36.529Z,-0.90
2018-03-19T16:05:04.394Z,-0.90
2018-03-19T16:07:31.460Z,-0.80
2018-03-19T16:09:58.474Z,-0.80
2018-03-19T16:12:27.305Z,-1.00
2018-03-19T16:14:54.375Z,-1.00
2018-03-19T16:17:23.711Z,-0.90
2018-03-19T16:19:51.668Z,-1.10
2018-03-19T16:22:18.746Z,-1.00
2018-03-19T16:24:45.765Z,-0.80
2018-03-19T16:29:39.952Z,-1.20
2018-03-19T16:32:07.314Z,-1.20
2018-03-19T16:34:34.337Z,-1.10
2018-03-19T16:37:02.371Z,-1.00
2018-03-19T16:39:29.395Z,-1.20
2018-03-19T16:41:56.433Z,-1.20
2018-03-19T16:44:23.556Z,-1.20
2018-03-19T16:46:50.595Z,-1.20
2018-03-19T16:52:01.697Z,-1.40
2018-03-19T16:57:13.594Z,-1.50
2018-03-19T16:59:40.658Z,-1.30
2018-03-19T17:02:07.699Z,-1.50
2018-03-19T17:04:34.778Z,-1.40
2018-03-19T17:07:01.861Z,-1.40
2018-03-19T17:09:28.840Z,-1.40
2018-03-19T17:11:56.321Z,-1.40
2018-03-19T17:14:23.351Z,-1.60
2018-03-19T17:16:50.405Z,-1.60
2018-03-19T17:19:17.502Z,-1.50
2018-03-19T17:21:44.536Z,-1.50
2018-03-19T17:24:11.558Z,-1.60
2018-03-19T17:26:38.621Z,-1.50
2018-03-19T17:29:05.646Z,-1.70
2018-03-19T17:31:32.665Z,-1.70
2018-03-19T17:33:59.746Z,-1.70
2018-03-19T17:36:26.891Z,-1.70
2018-03-19T17:38:53.923Z,-1.80
2018-03-19T17:41:21.007Z,-1.70
2018-03-19T17:43:48.019Z,-1.60
2018-03-19T17:46:15.040Z,-1.60
2018-03-19T17:48:42.115Z,-1.60
2018-03-19T17:51:09.144Z,-1.80
2018-03-19T17:56:03.327Z,-1.80
2018-03-19T17:58:30.349Z,-1.80
2018-03-19T18:00:57.368Z,-1.90
2018-03-19T18:03:26.334Z,-1.70
2018-03-19T18:05:51.476Z,-1.80
2018-03-19T18:08:18.505Z,-1.80
2018-03-19T18:10:45.571Z,-1.80
2018-03-19T18:13:12.642Z,-1.80
2018-03-19T18:15:40.007Z,-1.90
2018-03-19T18:23:12.734Z,-1.90
2018-03-19T18:25:39.780Z,-1.90
2018-03-19T18:28:06.777Z,-1.80
2018-03-19T18:30:33.854Z,-1.80
2018-03-19T18:33:00.870Z,-1.70
2018-03-19T18:35:27.878Z,-1.80
2018-03-19T18:37:54.955Z,-1.80
2018-03-19T18:40:22.950Z,-1.80
2018-03-19T18:42:49.981Z,-1.80
2018-03-19T18:45:17.061Z,-1.70
2018-03-19T18:47:44.096Z,-1.90
2018-03-19T18:52:38.211Z,-2.10
2018-03-19T18:55:05.263Z,-1.90
2018-03-19T18:57:32.280Z,-1.90
2018-03-19T18:59:59.360Z,-1.80
2018-03-19T19:02:26.378Z,-2.00
2018-03-19T19:04:53.422Z,-1.90
2018-03-19T19:07:20.509Z,-1.90
2018-03-19T19:09:47.516Z,-2.00
2018-03-19T19:12:14.538Z,-2.00
2018-03-19T19:14:41.914Z,-1.90
2018-03-19T19:17:08.868Z,-2.00
2018-03-19T19:22:03.064Z,-2.10
2018-03-19T19:24:30.176Z,-2.10
2018-03-19T19:26:57.430Z,-2.00
2018-03-19T19:29:24.398Z,-2.20
2018-03-19T19:31:51.406Z,-2.10
2018-03-19T19:36:57.985Z,-1.90
2018-03-19T19:39:25.007Z,-2.10
2018-03-19T19:41:52.078Z,-2.00
2018-03-19T19:49:38.089Z,-2.10
2018-03-19T19:52:05.182Z,-2.00
2018-03-19T19:54:32.201Z,-1.90
2018-03-19T19:56:59.231Z,-2.10
2018-03-19T19:59:26.510Z,-2.10
2018-03-19T20:04:33.367Z,-2.10
2018-03-19T20:07:00.497Z,-2.10
2018-03-19T20:09:27.532Z,-2.10
2018-03-19T20:11:54.923Z,-2.20
2018-03-19T20:14:22.217Z,-2.10
2018-03-19T20:16:50.173Z,-2.20
2018-03-19T20:19:17.269Z,-2.10
2018-03-19T20:21:44.336Z,-2.10
2018-03-19T20:24:11.676Z,-2.20
2018-03-19T20:29:05.872Z,-2.10
2018-03-19T20:31:32.928Z,-2.20
2018-03-19T20:34:00.014Z,-2.10
2018-03-19T20:36:27.055Z,-2.30
2018-03-19T20:38:55.923Z,-2.30
2018-03-19T20:41:21.152Z,-2.30
2018-03-19T20:43:48.182Z,-2.20
2018-03-19T20:46:15.241Z,-2.20
2018-03-19T20:48:42.316Z,-2.10
2018-03-19T20:51:09.342Z,-2.20
2018-03-19T20:56:03.630Z,-2.20
2018-03-19T20:58:30.559Z,-2.20
2018-03-19T21:00:57.578Z,-2.10
2018-03-19T21:03:24.648Z,-2.30
2018-03-19T21:05:51.701Z,-2.20
2018-03-19T21:08:18.715Z,-2.30
2018-03-19T21:10:45.781Z,-2.20
2018-03-19T21:13:12.854Z,-2.20
2018-03-19T21:15:40.134Z,-2.30
2018-03-19T21:18:07.214Z,-2.30
2018-03-19T21:20:34.227Z,-2.40
2018-03-19T21:23:01.317Z,-2.30
2018-03-19T21:28:06.826Z,-2.40
2018-03-19T21:30:33.895Z,-1.60
2018-03-19T21:33:00.911Z,-2.30
2018-03-19T21:35:27.931Z,-2.20
2018-03-19T21:37:55.009Z,-2.20
2018-03-19T21:42:49.131Z,-2.30
2018-03-19T21:45:16.251Z,-2.30
2018-03-19T21:47:43.269Z,-2.20
2018-03-19T21:50:10.289Z,-2.20
2018-03-19T21:52:37.364Z,-2.30
2018-03-19T21:55:04.382Z,-2.40
2018-03-19T21:57:31.461Z,-2.40
2018-03-19T21:59:58.593Z,-2.40
2018-03-19T22:02:25.588Z,-2.30
2018-03-19T22:04:52.611Z,-2.20
2018-03-19T22:07:19.677Z,-2.30
2018-03-19T22:09:46.712Z,-2.30
2018-03-19T22:12:13.743Z,-2.40
2018-03-19T22:14:40.814Z,-2.50
2018-03-19T22:17:07.889Z,-2.40
2018-03-19T22:19:35.738Z,-2.50
2018-03-19T22:22:02.807Z,-2.40
2018-03-19T22:24:29.858Z,-2.40
2018-03-19T22:26:56.877Z,-2.40
2018-03-19T22:29:23.946Z,-2.40
2018-03-19T22:31:50.969Z,-2.30
2018-03-19T22:34:18.024Z,-2.40
2018-03-19T22:36:45.088Z,-2.40
2018-03-19T22:39:12.113Z,-2.40
2018-03-19T22:41:39.991Z,-2.40
2018-03-19T22:44:07.083Z,-2.40
2018-03-19T22:49:16.693Z,-2.40
2018-03-19T22:51:43.748Z,-2.40
2018-03-19T22:54:10.765Z,-2.40
2018-03-19T22:56:37.867Z,-2.30
2018-03-19T22:59:07.862Z,-2.20
2018-03-19T23:01:35.823Z,-2.30
2018-03-19T23:04:02.906Z,-2.30
2018-03-19T23:11:56.599Z,-1.50
2018-03-19T23:14:23.685Z,-2.40
2018-03-19T23:16:50.731Z,-2.50
2018-03-19T23:19:17.870Z,-2.70
2018-03-19T23:21:44.838Z,-2.60
2018-03-19T23:24:11.908Z,-2.50
2018-03-19T23:29:19.007Z,-2.60
2018-03-19T23:31:46.395Z,-2.60
2018-03-19T23:34:13.411Z,-2.50
2018-03-19T23:36:40.486Z,-2.40
2018-03-19T23:44:13.528Z,-2.70
2018-03-19T23:46:40.544Z,-2.50
2018-03-19T23:49:07.560Z,-2.40
2018-03-19T23:51:34.640Z,-2.40
2018-03-19T23:54:01.691Z,-2.40
2018-03-19T23:56:28.705Z,-2.50
2018-03-19T23:58:55.778Z,-2.30
